sensor_id;sensor_type;location;lat;lon;timestamp;P1;durP1;ratioP1;P2;durP2;ratioP2
8365;SDS011;4220;42.502;24.188;2022-12-05T00:01:29;19.23;;;11.93;;
8365;SDS011;4220;42.502;24.188;2022-12-05T00:04:00;20.27;;;12.80;;
8365;SDS011;4220;42.502;24.188;2022-12-05T00:06:28;18.37;;;12.03;;
8365;SDS011;4220;42.502;24.188;2022-12-05T00:08:56;19.40;;;13.57;;
8365;SDS011;4220;42.502;24.188;2022-12-05T00:11:24;18.90;;;13.80;;
8365;SDS011;4220;42.502;24.188;2022-12-05T00:13:53;17.30;;;11.73;;
8365;SDS011;4220;42.502;24.188;2022-12-05T00:16:21;18.73;;;12.97;;
8365;SDS011;4220;42.502;24.188;2022-12-05T00:18:51;17.10;;;11.27;;
8365;SDS011;4220;42.502;24.188;2022-12-05T00:21:19;17.87;;;12.00;;
8365;SDS011;4220;42.502;24.188;2022-12-05T00:23:47;20.53;;;12.40;;
8365;SDS011;4220;42.502;24.188;2022-12-05T00:26:14;19.17;;;13.03;;
8365;SDS011;4220;42.502;24.188;2022-12-05T00:28:41;18.90;;;13.00;;
8365;SDS011;4220;42.502;24.188;2022-12-05T00:31:10;17.20;;;12.37;;
8365;SDS011;4220;42.502;24.188;2022-12-05T00:33:38;19.13;;;13.57;;
8365;SDS011;4220;42.502;24.188;2022-12-05T00:36:07;16.97;;;12.60;;
8365;SDS011;4220;42.502;24.188;2022-12-05T00:38:36;15.50;;;11.17;;
8365;SDS011;4220;42.502;24.188;2022-12-05T00:41:03;16.33;;;11.33;;
8365;SDS011;4220;42.502;24.188;2022-12-05T00:43:31;18.40;;;11.37;;
8365;SDS011;4220;42.502;24.188;2022-12-05T00:45:59;18.83;;;12.63;;
8365;SDS011;4220;42.502;24.188;2022-12-05T00:48:27;18.27;;;11.70;;
8365;SDS011;4220;42.502;24.188;2022-12-05T00:50:58;17.40;;;11.97;;
8365;SDS011;4220;42.502;24.188;2022-12-05T00:53:27;16.37;;;11.10;;
8365;SDS011;4220;42.502;24.188;2022-12-05T00:55:54;16.13;;;11.67;;
8365;SDS011;4220;42.502;24.188;2022-12-05T00:58:21;14.67;;;10.83;;
8365;SDS011;4220;42.502;24.188;2022-12-05T01:00:47;14.23;;;10.30;;
8365;SDS011;4220;42.502;24.188;2022-12-05T01:03:14;17.90;;;11.30;;
8365;SDS011;4220;42.502;24.188;2022-12-05T01:05:41;21.87;;;13.63;;
8365;SDS011;4220;42.502;24.188;2022-12-05T01:08:08;18.40;;;12.97;;
8365;SDS011;4220;42.502;24.188;2022-12-05T01:10:36;18.77;;;12.27;;
8365;SDS011;4220;42.502;24.188;2022-12-05T01:13:03;15.83;;;10.67;;
8365;SDS011;4220;42.502;24.188;2022-12-05T01:15:30;14.00;;;10.53;;
8365;SDS011;4220;42.502;24.188;2022-12-05T01:17:56;15.07;;;11.00;;
8365;SDS011;4220;42.502;24.188;2022-12-05T01:20:23;15.80;;;10.93;;
8365;SDS011;4220;42.502;24.188;2022-12-05T01:22:50;14.70;;;10.43;;
8365;SDS011;4220;42.502;24.188;2022-12-05T01:25:17;15.30;;;10.47;;
8365;SDS011;4220;42.502;24.188;2022-12-05T01:27:45;15.20;;;9.67;;
8365;SDS011;4220;42.502;24.188;2022-12-05T01:30:12;13.20;;;9.83;;
8365;SDS011;4220;42.502;24.188;2022-12-05T01:32:39;14.80;;;9.97;;
8365;SDS011;4220;42.502;24.188;2022-12-05T01:35:06;11.57;;;9.47;;
8365;SDS011;4220;42.502;24.188;2022-12-05T01:37:33;13.70;;;10.03;;
8365;SDS011;4220;42.502;24.188;2022-12-05T01:40:00;17.53;;;10.20;;
8365;SDS011;4220;42.502;24.188;2022-12-05T01:42:28;15.57;;;10.00;;
8365;SDS011;4220;42.502;24.188;2022-12-05T01:45:01;15.60;;;10.43;;
8365;SDS011;4220;42.502;24.188;2022-12-05T01:47:38;13.80;;;10.00;;
8365;SDS011;4220;42.502;24.188;2022-12-05T01:50:05;13.93;;;10.57;;
8365;SDS011;4220;42.502;24.188;2022-12-05T01:52:33;13.70;;;9.77;;
8365;SDS011;4220;42.502;24.188;2022-12-05T01:55:02;13.30;;;10.07;;
8365;SDS011;4220;42.502;24.188;2022-12-05T01:57:32;16.07;;;10.70;;
8365;SDS011;4220;42.502;24.188;2022-12-05T02:00:03;14.13;;;10.80;;
8365;SDS011;4220;42.502;24.188;2022-12-05T02:02:34;14.93;;;10.37;;
8365;SDS011;4220;42.502;24.188;2022-12-05T02:05:03;14.47;;;10.53;;
8365;SDS011;4220;42.502;24.188;2022-12-05T02:07:32;15.20;;;10.87;;
8365;SDS011;4220;42.502;24.188;2022-12-05T02:10:04;14.30;;;10.40;;
8365;SDS011;4220;42.502;24.188;2022-12-05T02:12:32;15.37;;;10.30;;
8365;SDS011;4220;42.502;24.188;2022-12-05T02:15:07;14.40;;;11.00;;
8365;SDS011;4220;42.502;24.188;2022-12-05T02:17:48;16.10;;;11.77;;
8365;SDS011;4220;42.502;24.188;2022-12-05T02:20:27;10.73;;;8.17;;
8365;SDS011;4220;42.502;24.188;2022-12-05T02:23:05;13.40;;;8.63;;
8365;SDS011;4220;42.502;24.188;2022-12-05T02:28:55;11.30;;;8.47;;
8365;SDS011;4220;42.502;24.188;2022-12-05T02:31:45;11.73;;;8.57;;
8365;SDS011;4220;42.502;24.188;2022-12-05T02:34:19;11.53;;;8.93;;
8365;SDS011;4220;42.502;24.188;2022-12-05T02:36:52;11.53;;;8.10;;
8365;SDS011;4220;42.502;24.188;2022-12-05T02:39:25;11.97;;;9.80;;
8365;SDS011;4220;42.502;24.188;2022-12-05T02:42:01;15.83;;;9.80;;
8365;SDS011;4220;42.502;24.188;2022-12-05T02:44:35;11.07;;;8.73;;
8365;SDS011;4220;42.502;24.188;2022-12-05T02:47:08;10.03;;;7.93;;
8365;SDS011;4220;42.502;24.188;2022-12-05T02:49:36;12.97;;;9.13;;
8365;SDS011;4220;42.502;24.188;2022-12-05T02:52:07;13.13;;;9.13;;
8365;SDS011;4220;42.502;24.188;2022-12-05T02:54:39;12.53;;;10.13;;
8365;SDS011;4220;42.502;24.188;2022-12-05T02:57:08;11.90;;;9.57;;
8365;SDS011;4220;42.502;24.188;2022-12-05T02:59:37;10.60;;;9.00;;
8365;SDS011;4220;42.502;24.188;2022-12-05T03:02:04;12.73;;;9.97;;
8365;SDS011;4220;42.502;24.188;2022-12-05T03:04:32;14.77;;;11.07;;
8365;SDS011;4220;42.502;24.188;2022-12-05T03:06:59;15.13;;;11.87;;
8365;SDS011;4220;42.502;24.188;2022-12-05T03:09:29;17.30;;;11.67;;
8365;SDS011;4220;42.502;24.188;2022-12-05T03:12:04;15.63;;;11.77;;
8365;SDS011;4220;42.502;24.188;2022-12-05T03:14:37;15.37;;;12.20;;
8365;SDS011;4220;42.502;24.188;2022-12-05T03:17:09;17.47;;;12.63;;
8365;SDS011;4220;42.502;24.188;2022-12-05T03:19:43;19.13;;;12.90;;
8365;SDS011;4220;42.502;24.188;2022-12-05T03:22:18;16.67;;;12.63;;
8365;SDS011;4220;42.502;24.188;2022-12-05T03:24:49;18.27;;;13.90;;
8365;SDS011;4220;42.502;24.188;2022-12-05T03:27:19;19.20;;;13.67;;
8365;SDS011;4220;42.502;24.188;2022-12-05T03:29:49;16.17;;;12.37;;
8365;SDS011;4220;42.502;24.188;2022-12-05T03:32:21;15.60;;;12.27;;
8365;SDS011;4220;42.502;24.188;2022-12-05T03:35:00;18.37;;;13.20;;
8365;SDS011;4220;42.502;24.188;2022-12-05T03:37:34;17.23;;;14.10;;
8365;SDS011;4220;42.502;24.188;2022-12-05T03:40:11;18.67;;;14.27;;
8365;SDS011;4220;42.502;24.188;2022-12-05T03:42:47;17.57;;;15.03;;
8365;SDS011;4220;42.502;24.188;2022-12-05T03:45:21;19.67;;;15.57;;
8365;SDS011;4220;42.502;24.188;2022-12-05T03:47:55;18.27;;;14.03;;
8365;SDS011;4220;42.502;24.188;2022-12-05T03:50:31;18.47;;;14.27;;
8365;SDS011;4220;42.502;24.188;2022-12-05T03:53:03;17.87;;;14.20;;
8365;SDS011;4220;42.502;24.188;2022-12-05T03:55:34;21.80;;;16.43;;
8365;SDS011;4220;42.502;24.188;2022-12-05T03:58:05;24.27;;;18.57;;
8365;SDS011;4220;42.502;24.188;2022-12-05T04:00:35;38.10;;;28.50;;
8365;SDS011;4220;42.502;24.188;2022-12-05T04:03:06;30.77;;;23.73;;
8365;SDS011;4220;42.502;24.188;2022-12-05T04:05:40;26.83;;;19.40;;
8365;SDS011;4220;42.502;24.188;2022-12-05T04:08:11;23.90;;;16.77;;
8365;SDS011;4220;42.502;24.188;2022-12-05T04:10:42;50.77;;;27.10;;
8365;SDS011;4220;42.502;24.188;2022-12-05T04:13:15;29.77;;;19.23;;
8365;SDS011;4220;42.502;24.188;2022-12-05T04:15:47;25.73;;;19.50;;
8365;SDS011;4220;42.502;24.188;2022-12-05T04:18:36;19.77;;;13.83;;
8365;SDS011;4220;42.502;24.188;2022-12-05T04:21:09;17.83;;;12.80;;
8365;SDS011;4220;42.502;24.188;2022-12-05T04:23:54;17.87;;;13.57;;
8365;SDS011;4220;42.502;24.188;2022-12-05T04:26:35;18.13;;;14.30;;
8365;SDS011;4220;42.502;24.188;2022-12-05T04:29:10;18.80;;;13.70;;
8365;SDS011;4220;42.502;24.188;2022-12-05T04:31:48;18.87;;;13.30;;
8365;SDS011;4220;42.502;24.188;2022-12-05T04:34:21;18.03;;;13.40;;
8365;SDS011;4220;42.502;24.188;2022-12-05T04:36:54;17.93;;;13.90;;
8365;SDS011;4220;42.502;24.188;2022-12-05T04:39:26;20.70;;;15.50;;
8365;SDS011;4220;42.502;24.188;2022-12-05T04:41:59;21.23;;;14.83;;
8365;SDS011;4220;42.502;24.188;2022-12-05T04:44:30;23.00;;;16.97;;
8365;SDS011;4220;42.502;24.188;2022-12-05T04:47:03;215.93;;;142.67;;
8365;SDS011;4220;42.502;24.188;2022-12-05T04:49:33;211.97;;;132.27;;
8365;SDS011;4220;42.502;24.188;2022-12-05T04:52:04;360.10;;;228.27;;
8365;SDS011;4220;42.502;24.188;2022-12-05T04:54:35;99.20;;;62.43;;
8365;SDS011;4220;42.502;24.188;2022-12-05T04:57:08;117.30;;;81.60;;
8365;SDS011;4220;42.502;24.188;2022-12-05T04:59:38;195.47;;;120.27;;
8365;SDS011;4220;42.502;24.188;2022-12-05T05:02:05;110.67;;;69.60;;
8365;SDS011;4220;42.502;24.188;2022-12-05T05:04:35;52.43;;;34.47;;
8365;SDS011;4220;42.502;24.188;2022-12-05T05:07:06;93.47;;;58.87;;
8365;SDS011;4220;42.502;24.188;2022-12-05T05:09:34;164.40;;;107.20;;
8365;SDS011;4220;42.502;24.188;2022-12-05T05:12:02;138.43;;;89.13;;
8365;SDS011;4220;42.502;24.188;2022-12-05T05:14:29;63.90;;;42.03;;
8365;SDS011;4220;42.502;24.188;2022-12-05T05:16:56;345.83;;;245.37;;
8365;SDS011;4220;42.502;24.188;2022-12-05T05:19:23;361.50;;;235.33;;
8365;SDS011;4220;42.502;24.188;2022-12-05T05:21:51;377.97;;;258.57;;
8365;SDS011;4220;42.502;24.188;2022-12-05T05:24:19;71.67;;;47.90;;
8365;SDS011;4220;42.502;24.188;2022-12-05T05:26:47;28.33;;;22.27;;
8365;SDS011;4220;42.502;24.188;2022-12-05T05:29:15;39.20;;;27.50;;
8365;SDS011;4220;42.502;24.188;2022-12-05T05:31:42;47.77;;;32.43;;
8365;SDS011;4220;42.502;24.188;2022-12-05T05:34:09;41.63;;;27.97;;
8365;SDS011;4220;42.502;24.188;2022-12-05T05:36:36;25.57;;;18.60;;
8365;SDS011;4220;42.502;24.188;2022-12-05T05:39:04;28.43;;;21.03;;
8365;SDS011;4220;42.502;24.188;2022-12-05T05:41:34;32.83;;;24.13;;
8365;SDS011;4220;42.502;24.188;2022-12-05T05:44:01;31.93;;;23.33;;
8365;SDS011;4220;42.502;24.188;2022-12-05T05:46:30;38.63;;;27.93;;
8365;SDS011;4220;42.502;24.188;2022-12-05T05:48:58;34.50;;;25.50;;
8365;SDS011;4220;42.502;24.188;2022-12-05T05:51:26;33.67;;;24.07;;
8365;SDS011;4220;42.502;24.188;2022-12-05T05:53:54;28.93;;;22.70;;
8365;SDS011;4220;42.502;24.188;2022-12-05T05:56:21;27.70;;;19.57;;
8365;SDS011;4220;42.502;24.188;2022-12-05T05:58:54;23.23;;;19.10;;
8365;SDS011;4220;42.502;24.188;2022-12-05T06:01:22;30.27;;;22.90;;
8365;SDS011;4220;42.502;24.188;2022-12-05T06:03:49;22.70;;;17.83;;
8365;SDS011;4220;42.502;24.188;2022-12-05T06:06:17;24.93;;;17.50;;
8365;SDS011;4220;42.502;24.188;2022-12-05T06:08:44;23.73;;;17.97;;
8365;SDS011;4220;42.502;24.188;2022-12-05T06:11:12;22.07;;;17.67;;
8365;SDS011;4220;42.502;24.188;2022-12-05T06:13:41;28.80;;;22.77;;
8365;SDS011;4220;42.502;24.188;2022-12-05T06:16:11;37.73;;;30.00;;
8365;SDS011;4220;42.502;24.188;2022-12-05T06:18:39;40.57;;;28.77;;
8365;SDS011;4220;42.502;24.188;2022-12-05T06:21:06;46.17;;;31.90;;
8365;SDS011;4220;42.502;24.188;2022-12-05T06:23:33;37.93;;;27.30;;
8365;SDS011;4220;42.502;24.188;2022-12-05T06:26:02;34.07;;;24.27;;
8365;SDS011;4220;42.502;24.188;2022-12-05T06:28:30;34.47;;;24.07;;
8365;SDS011;4220;42.502;24.188;2022-12-05T06:30:57;25.23;;;20.03;;
8365;SDS011;4220;42.502;24.188;2022-12-05T06:33:27;25.97;;;20.60;;
8365;SDS011;4220;42.502;24.188;2022-12-05T06:36:03;37.90;;;27.03;;
8365;SDS011;4220;42.502;24.188;2022-12-05T06:38:32;34.77;;;27.00;;
8365;SDS011;4220;42.502;24.188;2022-12-05T06:40:58;32.47;;;23.57;;
8365;SDS011;4220;42.502;24.188;2022-12-05T06:43:25;26.23;;;21.70;;
8365;SDS011;4220;42.502;24.188;2022-12-05T06:45:52;29.70;;;20.13;;
8365;SDS011;4220;42.502;24.188;2022-12-05T06:48:19;30.77;;;20.40;;
8365;SDS011;4220;42.502;24.188;2022-12-05T06:50:51;39.63;;;25.27;;
8365;SDS011;4220;42.502;24.188;2022-12-05T06:53:18;35.10;;;24.30;;
8365;SDS011;4220;42.502;24.188;2022-12-05T06:55:53;36.30;;;24.33;;
8365;SDS011;4220;42.502;24.188;2022-12-05T06:58:21;34.93;;;23.47;;
8365;SDS011;4220;42.502;24.188;2022-12-05T07:00:47;32.43;;;24.43;;
8365;SDS011;4220;42.502;24.188;2022-12-05T07:03:32;34.23;;;24.93;;
8365;SDS011;4220;42.502;24.188;2022-12-05T07:06:00;44.53;;;28.87;;
8365;SDS011;4220;42.502;24.188;2022-12-05T07:08:27;52.23;;;35.30;;
8365;SDS011;4220;42.502;24.188;2022-12-05T07:10:54;53.57;;;36.03;;
8365;SDS011;4220;42.502;24.188;2022-12-05T07:13:21;52.27;;;33.23;;
8365;SDS011;4220;42.502;24.188;2022-12-05T07:15:48;41.40;;;29.13;;
8365;SDS011;4220;42.502;24.188;2022-12-05T07:18:16;32.87;;;22.67;;
8365;SDS011;4220;42.502;24.188;2022-12-05T07:20:43;31.17;;;20.73;;
8365;SDS011;4220;42.502;24.188;2022-12-05T07:23:12;31.00;;;20.53;;
8365;SDS011;4220;42.502;24.188;2022-12-05T07:25:38;29.33;;;20.83;;
8365;SDS011;4220;42.502;24.188;2022-12-05T07:28:06;35.30;;;23.43;;
8365;SDS011;4220;42.502;24.188;2022-12-05T07:30:33;37.07;;;24.33;;
8365;SDS011;4220;42.502;24.188;2022-12-05T07:33:00;32.10;;;20.27;;
8365;SDS011;4220;42.502;24.188;2022-12-05T07:35:27;32.13;;;20.00;;
8365;SDS011;4220;42.502;24.188;2022-12-05T07:37:54;37.53;;;23.63;;
8365;SDS011;4220;42.502;24.188;2022-12-05T07:40:22;35.47;;;22.10;;
8365;SDS011;4220;42.502;24.188;2022-12-05T07:42:49;39.73;;;25.30;;
8365;SDS011;4220;42.502;24.188;2022-12-05T07:45:17;35.37;;;21.07;;
8365;SDS011;4220;42.502;24.188;2022-12-05T07:47:44;32.37;;;22.47;;
8365;SDS011;4220;42.502;24.188;2022-12-05T07:50:11;37.87;;;25.00;;
8365;SDS011;4220;42.502;24.188;2022-12-05T07:52:39;37.30;;;21.43;;
8365;SDS011;4220;42.502;24.188;2022-12-05T07:55:06;38.03;;;24.67;;
8365;SDS011;4220;42.502;24.188;2022-12-05T07:57:35;32.73;;;23.67;;
8365;SDS011;4220;42.502;24.188;2022-12-05T08:00:02;29.20;;;19.87;;
8365;SDS011;4220;42.502;24.188;2022-12-05T08:02:30;33.23;;;21.67;;
8365;SDS011;4220;42.502;24.188;2022-12-05T08:04:57;33.03;;;21.33;;
8365;SDS011;4220;42.502;24.188;2022-12-05T08:07:24;33.57;;;21.47;;
8365;SDS011;4220;42.502;24.188;2022-12-05T08:09:51;29.83;;;18.60;;
8365;SDS011;4220;42.502;24.188;2022-12-05T08:12:18;27.47;;;15.73;;
8365;SDS011;4220;42.502;24.188;2022-12-05T08:14:46;26.93;;;17.40;;
8365;SDS011;4220;42.502;24.188;2022-12-05T08:17:13;29.43;;;18.50;;
8365;SDS011;4220;42.502;24.188;2022-12-05T08:19:39;25.97;;;17.97;;
8365;SDS011;4220;42.502;24.188;2022-12-05T08:22:06;25.83;;;18.30;;
8365;SDS011;4220;42.502;24.188;2022-12-05T08:24:33;28.70;;;20.17;;
8365;SDS011;4220;42.502;24.188;2022-12-05T08:27:00;29.87;;;21.03;;
8365;SDS011;4220;42.502;24.188;2022-12-05T08:29:26;25.67;;;17.70;;
8365;SDS011;4220;42.502;24.188;2022-12-05T08:31:55;29.90;;;18.17;;
8365;SDS011;4220;42.502;24.188;2022-12-05T08:34:21;30.27;;;19.73;;
8365;SDS011;4220;42.502;24.188;2022-12-05T08:36:48;29.47;;;19.83;;
8365;SDS011;4220;42.502;24.188;2022-12-05T08:39:16;28.17;;;19.80;;
8365;SDS011;4220;42.502;24.188;2022-12-05T08:41:45;26.33;;;16.70;;
8365;SDS011;4220;42.502;24.188;2022-12-05T08:44:13;34.33;;;22.07;;
8365;SDS011;4220;42.502;24.188;2022-12-05T08:46:41;25.73;;;17.80;;
8365;SDS011;4220;42.502;24.188;2022-12-05T08:49:10;25.77;;;18.27;;
8365;SDS011;4220;42.502;24.188;2022-12-05T08:51:38;24.27;;;16.07;;
8365;SDS011;4220;42.502;24.188;2022-12-05T08:54:06;27.77;;;18.40;;
8365;SDS011;4220;42.502;24.188;2022-12-05T08:56:33;25.43;;;17.10;;
8365;SDS011;4220;42.502;24.188;2022-12-05T08:59:00;21.33;;;14.53;;
8365;SDS011;4220;42.502;24.188;2022-12-05T09:01:27;23.77;;;14.43;;
8365;SDS011;4220;42.502;24.188;2022-12-05T09:03:56;18.60;;;13.47;;
8365;SDS011;4220;42.502;24.188;2022-12-05T09:06:26;20.93;;;14.93;;
8365;SDS011;4220;42.502;24.188;2022-12-05T09:08:54;15.93;;;11.83;;
8365;SDS011;4220;42.502;24.188;2022-12-05T09:11:22;14.97;;;10.80;;
8365;SDS011;4220;42.502;24.188;2022-12-05T09:13:51;20.37;;;12.00;;
8365;SDS011;4220;42.502;24.188;2022-12-05T09:16:19;18.27;;;12.57;;
8365;SDS011;4220;42.502;24.188;2022-12-05T09:18:48;17.83;;;10.60;;
8365;SDS011;4220;42.502;24.188;2022-12-05T09:21:16;11.20;;;7.83;;
8365;SDS011;4220;42.502;24.188;2022-12-05T09:23:46;12.43;;;9.00;;
8365;SDS011;4220;42.502;24.188;2022-12-05T09:26:14;22.40;;;13.80;;
8365;SDS011;4220;42.502;24.188;2022-12-05T09:28:42;17.97;;;12.60;;
8365;SDS011;4220;42.502;24.188;2022-12-05T09:31:10;19.47;;;12.00;;
8365;SDS011;4220;42.502;24.188;2022-12-05T09:33:38;13.70;;;10.40;;
8365;SDS011;4220;42.502;24.188;2022-12-05T09:36:05;19.80;;;13.93;;
8365;SDS011;4220;42.502;24.188;2022-12-05T09:38:34;22.23;;;15.20;;
8365;SDS011;4220;42.502;24.188;2022-12-05T09:41:04;14.53;;;10.70;;
8365;SDS011;4220;42.502;24.188;2022-12-05T09:43:41;16.00;;;11.43;;
8365;SDS011;4220;42.502;24.188;2022-12-05T09:46:16;17.43;;;13.60;;
8365;SDS011;4220;42.502;24.188;2022-12-05T09:48:51;21.63;;;14.90;;
8365;SDS011;4220;42.502;24.188;2022-12-05T09:51:20;15.40;;;9.80;;
8365;SDS011;4220;42.502;24.188;2022-12-05T09:53:47;12.07;;;9.40;;
8365;SDS011;4220;42.502;24.188;2022-12-05T09:56:18;15.03;;;10.93;;
8365;SDS011;4220;42.502;24.188;2022-12-05T09:58:49;14.73;;;11.03;;
8365;SDS011;4220;42.502;24.188;2022-12-05T10:01:30;16.27;;;10.33;;
8365;SDS011;4220;42.502;24.188;2022-12-05T10:06:56;19.23;;;14.67;;
8365;SDS011;4220;42.502;24.188;2022-12-05T10:09:38;14.30;;;12.07;;
8365;SDS011;4220;42.502;24.188;2022-12-05T10:12:18;19.67;;;13.27;;
8365;SDS011;4220;42.502;24.188;2022-12-05T10:15:03;19.87;;;13.80;;
8365;SDS011;4220;42.502;24.188;2022-12-05T10:17:38;19.60;;;14.77;;
8365;SDS011;4220;42.502;24.188;2022-12-05T10:20:09;27.37;;;18.60;;
8365;SDS011;4220;42.502;24.188;2022-12-05T10:22:42;25.50;;;19.23;;
8365;SDS011;4220;42.502;24.188;2022-12-05T10:25:13;21.40;;;15.27;;
8365;SDS011;4220;42.502;24.188;2022-12-05T10:27:46;20.80;;;16.63;;
8365;SDS011;4220;42.502;24.188;2022-12-05T10:30:16;20.77;;;15.60;;
8365;SDS011;4220;42.502;24.188;2022-12-05T10:32:48;19.50;;;14.97;;
8365;SDS011;4220;42.502;24.188;2022-12-05T10:35:19;24.37;;;17.53;;
8365;SDS011;4220;42.502;24.188;2022-12-05T10:37:48;28.47;;;19.87;;
8365;SDS011;4220;42.502;24.188;2022-12-05T10:40:17;19.43;;;15.20;;
8365;SDS011;4220;42.502;24.188;2022-12-05T10:42:47;19.47;;;14.07;;
8365;SDS011;4220;42.502;24.188;2022-12-05T10:45:17;18.30;;;13.37;;
8365;SDS011;4220;42.502;24.188;2022-12-05T10:47:45;21.70;;;15.53;;
8365;SDS011;4220;42.502;24.188;2022-12-05T10:50:19;21.33;;;15.50;;
8365;SDS011;4220;42.502;24.188;2022-12-05T10:52:49;22.13;;;15.47;;
8365;SDS011;4220;42.502;24.188;2022-12-05T10:55:17;28.77;;;17.87;;
8365;SDS011;4220;42.502;24.188;2022-12-05T10:57:49;30.87;;;16.73;;
8365;SDS011;4220;42.502;24.188;2022-12-05T11:00:20;23.60;;;15.63;;
8365;SDS011;4220;42.502;24.188;2022-12-05T11:02:50;21.67;;;14.77;;
8365;SDS011;4220;42.502;24.188;2022-12-05T11:05:26;18.33;;;14.20;;
8365;SDS011;4220;42.502;24.188;2022-12-05T11:07:55;21.77;;;16.30;;
8365;SDS011;4220;42.502;24.188;2022-12-05T11:10:24;17.40;;;13.30;;
8365;SDS011;4220;42.502;24.188;2022-12-05T11:13:01;16.63;;;13.03;;
8365;SDS011;4220;42.502;24.188;2022-12-05T11:15:43;25.27;;;19.70;;
8365;SDS011;4220;42.502;24.188;2022-12-05T11:18:18;28.00;;;20.27;;
8365;SDS011;4220;42.502;24.188;2022-12-05T11:20:54;19.07;;;13.87;;
8365;SDS011;4220;42.502;24.188;2022-12-05T11:23:23;38.47;;;26.00;;
8365;SDS011;4220;42.502;24.188;2022-12-05T11:25:52;22.60;;;15.10;;
8365;SDS011;4220;42.502;24.188;2022-12-05T11:31:17;352.60;;;243.47;;
8365;SDS011;4220;42.502;24.188;2022-12-05T11:33:57;200.77;;;121.80;;
8365;SDS011;4220;42.502;24.188;2022-12-05T11:36:29;24.97;;;17.97;;
8365;SDS011;4220;42.502;24.188;2022-12-05T11:39:04;23.80;;;18.70;;
8365;SDS011;4220;42.502;24.188;2022-12-05T11:41:38;23.97;;;18.17;;
8365;SDS011;4220;42.502;24.188;2022-12-05T11:44:21;22.67;;;16.60;;
8365;SDS011;4220;42.502;24.188;2022-12-05T11:47:03;34.30;;;25.53;;
8365;SDS011;4220;42.502;24.188;2022-12-05T11:49:52;30.17;;;21.83;;
8365;SDS011;4220;42.502;24.188;2022-12-05T11:52:34;23.13;;;17.07;;
8365;SDS011;4220;42.502;24.188;2022-12-05T11:55:13;20.67;;;15.83;;
8365;SDS011;4220;42.502;24.188;2022-12-05T11:58:00;25.87;;;17.83;;
8365;SDS011;4220;42.502;24.188;2022-12-05T12:00:49;27.37;;;17.07;;
8365;SDS011;4220;42.502;24.188;2022-12-05T12:03:32;204.17;;;137.20;;
8365;SDS011;4220;42.502;24.188;2022-12-05T12:06:22;263.17;;;193.33;;
8365;SDS011;4220;42.502;24.188;2022-12-05T12:09:10;41.90;;;29.63;;
8365;SDS011;4220;42.502;24.188;2022-12-05T12:11:51;21.43;;;15.60;;
8365;SDS011;4220;42.502;24.188;2022-12-05T12:14:25;18.90;;;13.27;;
8365;SDS011;4220;42.502;24.188;2022-12-05T12:17:01;18.23;;;14.87;;
8365;SDS011;4220;42.502;24.188;2022-12-05T12:19:42;23.57;;;17.07;;
8365;SDS011;4220;42.502;24.188;2022-12-05T12:22:24;19.53;;;14.90;;
8365;SDS011;4220;42.502;24.188;2022-12-05T12:25:21;20.83;;;15.67;;
8365;SDS011;4220;42.502;24.188;2022-12-05T12:27:55;22.53;;;17.20;;
8365;SDS011;4220;42.502;24.188;2022-12-05T12:30:32;23.93;;;18.53;;
8365;SDS011;4220;42.502;24.188;2022-12-05T12:33:14;17.90;;;13.40;;
8365;SDS011;4220;42.502;24.188;2022-12-05T12:35:54;16.87;;;11.80;;
8365;SDS011;4220;42.502;24.188;2022-12-05T12:38:34;21.17;;;14.93;;
8365;SDS011;4220;42.502;24.188;2022-12-05T12:41:15;19.13;;;14.47;;
8365;SDS011;4220;42.502;24.188;2022-12-05T12:44:01;17.40;;;13.20;;
8365;SDS011;4220;42.502;24.188;2022-12-05T12:46:41;17.40;;;13.13;;
8365;SDS011;4220;42.502;24.188;2022-12-05T12:49:21;18.07;;;12.10;;
8365;SDS011;4220;42.502;24.188;2022-12-05T12:52:01;17.23;;;12.10;;
8365;SDS011;4220;42.502;24.188;2022-12-05T12:54:37;16.20;;;10.77;;
8365;SDS011;4220;42.502;24.188;2022-12-05T12:57:23;15.83;;;10.93;;
8365;SDS011;4220;42.502;24.188;2022-12-05T13:00:01;18.90;;;12.50;;
8365;SDS011;4220;42.502;24.188;2022-12-05T13:02:30;16.60;;;12.40;;
8365;SDS011;4220;42.502;24.188;2022-12-05T13:05:07;23.17;;;15.60;;
8365;SDS011;4220;42.502;24.188;2022-12-05T13:07:44;19.30;;;14.07;;
8365;SDS011;4220;42.502;24.188;2022-12-05T13:10:16;23.23;;;16.63;;
8365;SDS011;4220;42.502;24.188;2022-12-05T13:12:52;22.17;;;17.07;;
8365;SDS011;4220;42.502;24.188;2022-12-05T13:15:21;25.23;;;16.93;;
8365;SDS011;4220;42.502;24.188;2022-12-05T13:17:56;19.30;;;12.40;;
8365;SDS011;4220;42.502;24.188;2022-12-05T13:20:26;18.07;;;13.40;;
8365;SDS011;4220;42.502;24.188;2022-12-05T13:22:55;21.13;;;14.60;;
8365;SDS011;4220;42.502;24.188;2022-12-05T13:25:23;25.03;;;16.00;;
8365;SDS011;4220;42.502;24.188;2022-12-05T13:27:57;22.77;;;15.87;;
8365;SDS011;4220;42.502;24.188;2022-12-05T13:30:26;24.10;;;17.87;;
8365;SDS011;4220;42.502;24.188;2022-12-05T13:32:54;26.10;;;19.73;;
8365;SDS011;4220;42.502;24.188;2022-12-05T13:35:27;26.03;;;17.77;;
8365;SDS011;4220;42.502;24.188;2022-12-05T13:38:20;20.93;;;14.77;;
8365;SDS011;4220;42.502;24.188;2022-12-05T13:41:06;20.30;;;15.80;;
8365;SDS011;4220;42.502;24.188;2022-12-05T13:43:51;25.87;;;17.97;;
8365;SDS011;4220;42.502;24.188;2022-12-05T13:46:22;29.37;;;20.37;;
8365;SDS011;4220;42.502;24.188;2022-12-05T13:48:57;26.73;;;19.47;;
8365;SDS011;4220;42.502;24.188;2022-12-05T13:51:30;28.87;;;19.40;;
8365;SDS011;4220;42.502;24.188;2022-12-05T13:54:02;22.40;;;17.40;;
8365;SDS011;4220;42.502;24.188;2022-12-05T13:56:47;31.93;;;21.03;;
8365;SDS011;4220;42.502;24.188;2022-12-05T14:11:18;36.17;;;25.27;;
8365;SDS011;4220;42.502;24.188;2022-12-05T14:13:45;28.63;;;20.53;;
8365;SDS011;4220;42.502;24.188;2022-12-05T14:19:11;25.40;;;18.17;;
8365;SDS011;4220;42.502;24.188;2022-12-05T14:21:44;24.00;;;16.13;;
8365;SDS011;4220;42.502;24.188;2022-12-05T14:24:22;23.67;;;16.00;;
8365;SDS011;4220;42.502;24.188;2022-12-05T14:26:58;24.60;;;17.33;;
8365;SDS011;4220;42.502;24.188;2022-12-05T14:29:36;23.47;;;17.70;;
8365;SDS011;4220;42.502;24.188;2022-12-05T14:32:09;26.20;;;18.17;;
8365;SDS011;4220;42.502;24.188;2022-12-05T14:34:47;169.33;;;108.23;;
8365;SDS011;4220;42.502;24.188;2022-12-05T14:37:23;106.77;;;67.53;;
8365;SDS011;4220;42.502;24.188;2022-12-05T14:39:54;171.07;;;112.77;;
8365;SDS011;4220;42.502;24.188;2022-12-05T14:42:25;110.47;;;75.00;;
8365;SDS011;4220;42.502;24.188;2022-12-05T14:44:57;45.50;;;30.77;;
8365;SDS011;4220;42.502;24.188;2022-12-05T14:47:28;44.77;;;28.53;;
8365;SDS011;4220;42.502;24.188;2022-12-05T14:49:58;33.43;;;24.07;;
8365;SDS011;4220;42.502;24.188;2022-12-05T14:52:56;31.13;;;23.07;;
8365;SDS011;4220;42.502;24.188;2022-12-05T14:55:42;27.43;;;20.10;;
8365;SDS011;4220;42.502;24.188;2022-12-05T14:58:10;26.77;;;18.97;;
8365;SDS011;4220;42.502;24.188;2022-12-05T15:00:43;46.53;;;31.73;;
8365;SDS011;4220;42.502;24.188;2022-12-05T15:03:15;40.37;;;28.37;;
8365;SDS011;4220;42.502;24.188;2022-12-05T15:05:48;33.27;;;24.00;;
8365;SDS011;4220;42.502;24.188;2022-12-05T15:08:16;41.23;;;29.20;;
8365;SDS011;4220;42.502;24.188;2022-12-05T15:10:44;57.80;;;38.90;;
8365;SDS011;4220;42.502;24.188;2022-12-05T15:13:12;61.47;;;40.40;;
8365;SDS011;4220;42.502;24.188;2022-12-05T15:15:43;79.23;;;52.30;;
8365;SDS011;4220;42.502;24.188;2022-12-05T15:18:15;76.93;;;53.17;;
8365;SDS011;4220;42.502;24.188;2022-12-05T15:20:48;80.67;;;53.67;;
8365;SDS011;4220;42.502;24.188;2022-12-05T15:23:41;90.67;;;63.53;;